Merrifield, Minnesota
Current Conditions -  °F | °C
As of 3:53 AM on Saturday 22 Nov 2014 (Local Time) from KBRD Reporting Station
Haze Haze  
Wind Chill: 18°   Ceiling: Unl
Heat Index: 26°   Visibility: 6mi
Dew Point: 24°   Wind: 7mph
Humidity: 92%   Direction: 200°SSW
Pressure: 29.71"   Gusts: NA
Location:  46.46°N, 94.17°W
Report Text: KBRD 220953Z AUTO 20006KT 6SM BR CLR M03/M04 A2971 RMK AO2 SLP078 T10331044
Loading
Personal Weather Stations






























Interactive Weather Map New forecast layout! Learn more

10-Day Weather Forecast

Advertisements
Track Severe Weather on mobile